Osnabrock, North Dakota
Current Conditions -  °F | °C
As of 4:55 PM on Tuesday 21 Oct 2014 (Local Time) from KD55 Reporting Station
Clear Clear  
Wind Chill: 64°   Ceiling: Unl
Heat Index: 64°   Visibility: 10mi
Dew Point: 41°   Wind: 29mph
Humidity: 42%   Direction: 150°SSE
Pressure: 29.78"   Gusts: 36mph
Location:  48.67°N, 98.15°W
Report Text: KD55 212155Z AUTO 15025G31KT 10SM CLR 18/05 A2978 RMK AO2
Loading
Personal Weather Stations






























Interactive Weather Map
Tropical Storm Tracking
New forecast layout! Learn more

10-Day Weather Forecast

Advertisements
Track Severe Weather on mobile